Meteo Giornale » Osservazioni meteo Ungheria » Szolnok

ore: 19:45 - Osservazioni Meteo Szolnok
Lat. 47° 7' N Lon. 20° 14' E Alt. 89 metri s.l.m.

nuvoloso Europe/Budapest

14 °C

Nuvoloso

Temp. 24 Ore

10 °C

19 °C

Nord

11.1 Km/h

Dew point 8 °C

Umidità 67 %

Visibilità  10 Km

Il sole sorge alle ore 04:49

Il sole tramonta alle ore 20:23

Data e Ora Cielo e Fenomeni T °C DP °C Um. % Pres. hPa Vis. km Vento km/h
Oggi h: 19:45 nuvoloso Nuvoloso 14 8 67 1025 10 N 11.1
Oggi h: 19:15 molto_nuvoloso Molto Nuvoloso 14 9 71 1025 10 N 14.8
Oggi h: 18:45 nuvoloso_piovaschi Debole Rovescio di Pioggia 14 9 71 1025 10 N/NE 29.6
Oggi h: 18:39 nuvoloso_piovaschi Debole Rovescio di Pioggia 16 7 55 1024 10 N/NE 35.2
Oggi h: 17:45 nuvoloso Nuvoloso 16 8 58 1024 10 N 11.1
Oggi h: 17:15 nuvoloso Nuvoloso 16 7 55 1023 10 N/NO 22.2
Oggi h: 16:45 nuvoloso_temporali Temporale nelle Vicinanze 18 7 48 1023 10 N 18.5
Oggi h: 16:40 nuvoloso_temporali Temporale nelle Vicinanze 19 6 42 1023 10 N 18.5
Oggi h: 16:15 nuvoloso Nuvoloso 19 7 45 1023 10 N 22.2
Oggi h: 15:45 nuvoloso Nuvoloso 19 8 48 1023 10 N 14.8
Oggi h: 15:15 nuvoloso Nuvoloso 18 7 48 1023 10 N 18.5
Oggi h: 14:45 nuvoloso Nuvoloso 17 10 63 1023 10 N 14.8
Oggi h: 14:25 nuvoloso_temporali Temporale con Pioggia Debole 19 7 45 1023 10 N 22.2
Oggi h: 14:23 nuvoloso_piovaschi Debole Rovescio di Pioggia 19 7 45 1023 10 N/NE 22.2
Oggi h: 14:15 nuvoloso Nuvoloso 18 7 48 1023 10 N/NE 29.6
Oggi h: 13:45 nuvoloso Nuvoloso 18 7 48 1024 10 N 22.2
Oggi h: 13:15 nuvoloso Nuvoloso 19 8 48 1024 10 N/NE 22.2
Oggi h: 13:07 nuvoloso Nuvoloso 19 8 48 1024 10 N/NE 25.9
Oggi h: 12:45 nuvoloso Nuvoloso 18 7 48 1024 10 N/NE 22.2
Oggi h: 12:15 nuvoloso Nuvoloso 19 8 48 1024 10 NE 25.9
Oggi h: 11:45 nuvoloso Nuvoloso 17 8 55 1025 10 N/NE 25.9
Oggi h: 11:15 nuvoloso Nuvoloso 17 8 55 1025 10 N 22.2
Oggi h: 10:45 nuvoloso Nuvoloso 16 8 58 1025 10 N 22.2
Oggi h: 10:15 molto_nuvoloso Molto Nuvoloso 16 9 63 1025 10 N/NE 22.2
Oggi h: 09:45 molto_nuvoloso Molto Nuvoloso 15 9 67 1025 10 N/NE 22.2
Oggi h: 09:15 molto_nuvoloso Molto Nuvoloso 16 10 67 1025 10 N/NE 25.9
Oggi h: 08:45 molto_nuvoloso Molto Nuvoloso 15 9 67 1025 10 N 14.8
Oggi h: 08:15 sereno Sereno 14 9 71 1025 10 N 14.8
Oggi h: 07:45 sereno Sereno 13 9 76 1025 10 N 14.8
Oggi h: 07:15 sereno Sereno 12 9 81 1025 10 N 14.8
Oggi h: 06:45 sereno Sereno 11 8 81 1024 10 N 14.8
Oggi h: 06:15 sereno Sereno 11 9 87 1024 10 N 11.1
Oggi h: 05:45 sereno Sereno 11 9 87 1024 10 N 14.8
Oggi h: 04:45 sereno Sereno 10 9 93 1024 10 N/NO 11.1
Oggi h: 04:15 sereno Sereno 11 9 87 1024 10 N/NO 11.1
Oggi h: 03:45 sereno Sereno 11 9 87 1024 10 N 11.1
Oggi h: 03:15 sereno Sereno 11 9 87 1024 10 N 7.4
Oggi h: 02:45 sereno Sereno 11 10 93 1024 10 N/NO 7.4
Oggi h: 02:15 sereno Sereno 11 10 93 1024 10 NO 7.4
Oggi h: 01:45 molto_nuvoloso Molto Nuvoloso 11 10 93 1024 10 N 3.7
Oggi h: 01:15 molto_nuvoloso Molto Nuvoloso 11 10 93 1024 10 N 0
Oggi h: 01:00 coperto Coperto 11 10 93 1024 10 N 0
Oggi h: 00:45 nuvoloso_piovaschi Debole Rovescio di Pioggia 11 9 87 1024 10 N 3.7
Oggi h: 00:15 sereno Sereno 12 9 81 1024 10 N 3.7
Ieri h: 23:45 sereno Sereno 12 9 81 1024 10 N/NO 7.4
Ieri h: 23:15 molto_nuvoloso Molto Nuvoloso 12 9 81 1023 10 N/NO 7.4
Ieri h: 23:08 coperto Coperto 12 9 81 1023 10 N/NO 7.4
Ieri h: 22:45 nuvoloso_piovaschi Debole Rovescio di Pioggia 12 10 87 1023 10 N 3.7
Ieri h: 22:15 nuvoloso_piovaschi Debole Rovescio di Pioggia 12 10 87 1023 10 N/NE 7.4
Ieri h: 21:45 molto_nuvoloso Molto Nuvoloso 13 9 76 1023 10 N 7.4
Ieri h: 21:15 nuvoloso Nuvoloso 13 9 76 1023 10 NO 7.4
Ieri h: 20:45 nuvoloso Nuvoloso 13 9 76 1022 10 N 3.7